Time;durP1;ratioP1;P1;durP2;ratioP2;P2;SDS_P1;SDS_P2;PMS_P1;PMS_P2;Temp;Humidity;BMP_temperature;BMP_pressure;BME280_temperature;BME280_humidity;BME280_pressure;Samples;Min_cycle;Max_cycle;Signal;HPM_P1;HPM_P2
2020/12/26 00:00:52;;;;;;;19.38;11.80;;;;;;;1.43;86.16;101277.56;4997514;28;20069;-82
2020/12/26 00:03:19;;;;;;;23.30;12.40;;;;;;;1.51;86.24;101275.88;4997667;28;20065;-80
2020/12/26 00:05:48;;;;;;;26.13;12.27;;;;;;;1.52;85.90;101272.41;4992997;28;20043;-83
2020/12/26 00:08:15;;;;;;;23.58;12.68;;;;;;;1.54;85.92;101281.13;4996341;28;20042;-82
2020/12/26 00:10:41;;;;;;;21.52;12.45;;;;;;;1.58;85.34;101287.19;5000583;28;20054;-81
2020/12/26 00:13:07;;;;;;;20.85;12.57;;;;;;;1.62;85.07;101287.22;5003198;28;20470;-79
2020/12/26 00:15:34;;;;;;;27.85;12.63;;;;;;;1.87;89.29;101284.72;5001780;28;20050;-81
2020/12/26 00:18:00;;;;;;;24.52;12.63;;;;;;;1.99;88.99;101288.22;4987869;28;20465;-80
2020/12/26 00:20:27;;;;;;;25.00;12.93;;;;;;;2.02;87.78;101284.75;4999076;28;20133;-80
2020/12/26 00:22:53;;;;;;;26.88;13.07;;;;;;;1.97;86.48;101286.47;4994464;28;20043;-81
2020/12/26 00:25:19;;;;;;;22.63;12.77;;;;;;;1.99;85.18;101301.28;4988541;28;20074;-81
2020/12/26 00:27:46;;;;;;;25.42;12.23;;;;;;;1.97;85.27;101295.16;4987365;28;20069;-80
2020/12/26 00:30:12;;;;;;;23.17;12.07;;;;;;;1.98;84.79;101294.31;4995000;28;20038;-86
2020/12/26 00:32:39;;;;;;;24.42;13.55;;;;;;;2.15;85.11;101296.09;4996605;28;20054;-80
2020/12/26 00:35:06;;;;;;;25.88;13.10;;;;;;;2.13;83.63;101297.81;4999171;28;20061;-83
2020/12/26 00:37:33;;;;;;;29.95;13.30;;;;;;;2.05;84.45;101301.28;5001517;28;20508;-78
2020/12/26 00:39:59;;;;;;;21.92;12.88;;;;;;;1.90;83.15;101293.41;5003042;28;20122;-84
2020/12/26 00:42:25;;;;;;;22.40;12.48;;;;;;;1.84;84.76;101303.84;4994781;28;20077;-79
2020/12/26 00:44:52;;;;;;;22.40;12.55;;;;;;;1.86;85.28;101293.41;5010938;28;20057;-78
2020/12/26 00:47:18;;;;;;;22.80;13.00;;;;;;;1.91;86.21;101289.91;5008781;28;20502;-80
2020/12/26 00:49:44;;;;;;;27.92;13.70;;;;;;;2.05;87.06;101290.81;4993272;28;20073;-81
2020/12/26 00:52:11;;;;;;;26.00;12.88;;;;;;;2.11;86.18;101284.75;5000547;28;20378;-79
2020/12/26 00:54:40;;;;;;;23.98;12.98;;;;;;;2.17;85.66;101287.38;5003561;28;20121;-78
2020/12/26 00:57:06;;;;;;;24.98;12.40;;;;;;;2.19;84.53;101280.41;5003596;28;20057;-81
2020/12/26 00:59:33;;;;;;;26.70;12.70;;;;;;;2.16;83.85;101290.00;5001516;28;20073;-78
2020/12/26 01:01:59;;;;;;;24.33;12.48;;;;;;;2.08;83.76;101288.22;4995799;28;20133;-84
2020/12/26 01:04:26;;;;;;;26.35;13.75;;;;;;;2.10;82.78;101296.94;4990976;28;20098;-80
2020/12/26 01:06:53;;;;;;;22.77;12.77;;;;;;;2.05;82.52;101285.59;4997801;28;20125;-80
2020/12/26 01:09:21;;;;;;;27.17;13.88;;;;;;;1.91;83.27;101289.06;4993150;28;20539;-81
2020/12/26 01:11:50;;;;;;;27.50;14.15;;;;;;;1.75;83.87;101291.63;4995836;28;20052;-82
2020/12/26 01:14:16;;;;;;;25.95;14.13;;;;;;;1.57;84.18;101280.25;4981970;28;20050;-79
2020/12/26 01:16:48;;;;;;;30.00;15.35;;;;;;;1.55;84.81;101298.53;4992159;28;20049;-79
2020/12/26 01:19:14;;;;;;;23.98;13.10;;;;;;;1.48;85.65;101291.53;4990196;28;20108;-83
2020/12/26 01:21:41;;;;;;;25.60;14.30;;;;;;;1.45;85.66;101301.06;4985580;28;20054;-80
2020/12/26 01:24:07;;;;;;;29.20;14.57;;;;;;;1.40;85.75;101294.13;4999774;28;20114;-84
2020/12/26 01:26:34;;;;;;;25.33;13.85;;;;;;;1.35;85.56;101293.22;4999774;28;20126;-83
2020/12/26 01:29:01;;;;;;;28.83;13.88;;;;;;;1.33;86.01;101297.53;4987954;28;20056;-81
2020/12/26 01:31:27;;;;;;;24.55;14.48;;;;;;;1.35;86.55;101300.16;4982730;28;20141;-81
2020/12/26 01:33:54;;;;;;;27.13;14.27;;;;;;;1.41;85.97;101310.66;4979960;28;20423;-80
2020/12/26 01:36:20;;;;;;;27.60;14.02;;;;;;;1.38;86.15;101302.78;4985513;28;20071;-82
2020/12/26 01:38:46;;;;;;;24.10;14.05;;;;;;;1.40;86.20;101315.00;4991858;28;20050;-82
2020/12/26 01:41:15;;;;;;;27.10;13.80;;;;;;;1.41;86.64;101321.09;4980485;28;20153;-80
2020/12/26 01:43:53;;;;;;;24.67;13.85;;;;;;;1.36;86.40;101312.34;4986619;28;20398;-80
2020/12/26 01:46:21;;;;;;;25.73;13.82;;;;;;;1.28;86.21;101306.19;4994128;28;20141;-80
2020/12/26 01:48:50;;;;;;;27.98;13.98;;;;;;;1.25;86.51;101317.53;4992442;28;20106;-84
2020/12/26 01:51:16;;;;;;;25.65;14.20;;;;;;;1.23;86.76;101315.75;4988691;28;20047;-79
2020/12/26 01:53:43;;;;;;;29.85;14.55;;;;;;;1.22;86.79;101311.41;4988459;28;20050;-83
2020/12/26 01:56:09;;;;;;;26.30;15.00;;;;;;;1.29;86.83;101318.38;4992397;28;20822;-82
2020/12/26 01:58:42;;;;;;;28.77;14.98;;;;;;;1.29;86.47;101311.44;4993706;28;20066;-81
2020/12/26 02:01:10;;;;;;;30.58;15.32;;;;;;;1.30;86.58;101322.75;4993955;28;20094;-81
2020/12/26 02:03:39;;;;;;;28.85;14.30;;;;;;;1.25;86.65;101319.25;4993332;28;20122;-81
2020/12/26 02:06:10;;;;;;;26.63;14.70;;;;;;;1.22;86.83;101327.06;4995080;28;20062;-83
2020/12/26 02:08:37;;;;;;;28.95;15.45;;;;;;;1.22;87.00;101334.88;4993909;28;20077;-81
2020/12/26 02:11:05;;;;;;;28.92;15.45;;;;;;;1.21;87.36;101333.13;4995647;28;20069;-84
2020/12/26 02:13:32;;;;;;;28.83;15.10;;;;;;;1.21;87.73;101334.00;4994585;28;20038;-84
2020/12/26 02:16:06;;;;;;;32.08;16.35;;;;;;;1.22;87.87;101338.38;5007617;28;20171;-82
2020/12/26 02:18:33;;;;;;;31.58;15.20;;;;;;;1.30;87.30;101339.28;5011877;28;20050;-81
2020/12/26 02:21:01;;;;;;;27.95;15.40;;;;;;;1.39;86.30;101339.34;4998119;28;20046;-80
2020/12/26 02:23:27;;;;;;;26.45;15.52;;;;;;;1.37;86.47;101330.63;5009445;28;20050;-80
2020/12/26 02:25:57;;;;;;;28.23;15.60;;;;;;;1.39;85.84;101322.81;5006357;28;20533;-79
2020/12/26 02:28:24;;;;;;;31.73;15.33;;;;;;;1.37;86.38;101324.53;5000068;28;20070;-82
2020/12/26 02:30:51;;;;;;;30.35;15.20;;;;;;;1.41;87.19;101334.13;4989374;28;20501;-80
2020/12/26 02:33:18;;;;;;;26.67;14.13;;;;;;;1.46;86.69;101335.00;4995948;28;20572;-81
2020/12/26 02:35:48;;;;;;;25.60;14.00;;;;;;;1.57;85.79;101341.19;4996182;28;20126;-80
2020/12/26 02:38:18;;;;;;;31.60;14.85;;;;;;;1.64;85.12;101327.28;4991011;28;20140;-80
2020/12/26 02:40:48;;;;;;;27.63;14.90;;;;;;;1.64;85.14;101315.94;4988179;28;20149;-81
2020/12/26 02:43:22;;;;;;;28.37;14.70;;;;;;;1.69;85.20;101320.34;4998235;28;20057;-80
2020/12/26 02:45:51;;;;;;;31.73;15.80;;;;;;;1.73;85.51;101329.91;4989969;28;20565;-81
2020/12/26 02:48:18;;;;;;;27.25;13.70;;;;;;;1.71;84.75;101321.22;4983644;28;20050;-79
2020/12/26 02:50:53;;;;;;;25.75;13.98;;;;;;;1.81;84.58;101327.34;4989971;28;20560;-79
2020/12/26 02:53:20;;;;;;;23.58;13.30;;;;;;;1.88;83.63;101330.84;4985780;28;20065;-81
2020/12/26 02:55:46;;;;;;;24.25;13.27;;;;;;;1.90;83.61;101327.34;4997358;28;20056;-80
2020/12/26 02:58:13;;;;;;;26.48;13.15;;;;;;;1.88;83.44;101317.78;4997031;28;20710;-81
2020/12/26 03:00:40;;;;;;;24.95;13.13;;;;;;;1.87;84.17;101323.88;4981047;28;20042;-81
2020/12/26 03:03:07;;;;;;;27.27;13.25;;;;;;;1.90;83.72;101326.47;4981470;28;20059;-81
2020/12/26 03:05:34;;;;;;;24.52;12.80;;;;;;;1.92;82.74;101319.53;4985661;28;20042;-80
2020/12/26 03:08:00;;;;;;;25.50;13.25;;;;;;;1.92;83.47;101314.31;4984072;28;20119;-78
2020/12/26 03:10:28;;;;;;;22.65;11.85;;;;;;;1.93;82.95;101316.03;4987136;28;20054;-77
2020/12/26 03:12:54;;;;;;;28.33;13.30;;;;;;;1.96;83.25;101316.06;5006010;28;20046;-80
2020/12/26 03:15:21;;;;;;;23.98;12.38;;;;;;;1.95;83.31;101322.16;4990070;28;20478;-82
2020/12/26 03:17:49;;;;;;;24.42;12.55;;;;;;;2.02;82.78;101316.97;5005601;28;20066;-79
2020/12/26 03:20:15;;;;;;;25.23;12.93;;;;;;;1.97;82.39;101309.97;4997637;28;20086;-79
2020/12/26 03:22:41;;;;;;;21.92;12.57;;;;;;;1.90;83.22;101308.19;4998476;28;20077;-78
2020/12/26 03:25:08;;;;;;;27.42;13.38;;;;;;;1.95;83.63;101317.81;4996821;28;20077;-81
2020/12/26 03:27:37;;;;;;;23.63;12.57;;;;;;;1.95;82.79;101311.72;4995841;28;20054;-81
2020/12/26 03:30:04;;;;;;;25.52;12.93;;;;;;;1.91;82.86;101318.66;4992310;28;20424;-82
2020/12/26 03:32:31;;;;;;;24.20;12.15;;;;;;;1.89;83.36;101311.72;4989153;28;20050;-82
2020/12/26 03:34:57;;;;;;;25.45;13.15;;;;;;;1.93;83.33;101316.91;4996854;28;20042;-81
2020/12/26 03:37:23;;;;;;;22.52;12.50;;;;;;;1.93;83.55;101316.03;4980389;28;20047;-81
2020/12/26 03:39:50;;;;;;;22.48;13.02;;;;;;;1.96;82.69;101324.78;4998550;28;20053;-81
2020/12/26 03:42:16;;;;;;;26.02;12.60;;;;;;;2.08;82.89;101337.00;4982969;28;20101;-81
2020/12/26 03:44:43;;;;;;;22.23;12.45;;;;;;;2.15;82.59;101336.16;4997388;28;20130;-82
2020/12/26 03:47:10;;;;;;;24.30;12.95;;;;;;;2.18;82.18;101330.94;4987448;28;20453;-81
2020/12/26 03:49:39;;;;;;;24.10;13.75;;;;;;;2.10;82.35;101337.88;4995650;28;20149;-82
2020/12/26 03:52:06;;;;;;;25.83;13.85;;;;;;;2.06;82.98;101341.34;4994376;28;20050;-83
2020/12/26 03:54:33;;;;;;;26.25;13.23;;;;;;;2.09;83.38;101323.06;5009358;28;20058;-85
2020/12/26 03:56:59;;;;;;;24.80;13.30;;;;;;;2.09;82.91;101323.06;5014408;28;20038;-84
2020/12/26 03:59:26;;;;;;;24.90;13.27;;;;;;;2.05;82.82;101316.94;5003521;28;20058;-82
2020/12/26 04:01:52;;;;;;;23.73;13.68;;;;;;;2.10;82.90;101322.19;4990744;28;20145;-81
2020/12/26 04:04:19;;;;;;;29.13;14.10;;;;;;;2.09;82.79;101313.47;4991364;28;20052;-83
2020/12/26 04:06:45;;;;;;;25.63;13.00;;;;;;;2.16;83.13;101321.34;4991767;28;20057;-83
2020/12/26 04:09:12;;;;;;;26.92;13.73;;;;;;;2.21;83.36;101327.44;4992172;28;20101;-82
2020/12/26 04:11:39;;;;;;;22.20;12.40;;;;;;;2.20;82.18;101321.38;4990191;28;20402;-82
2020/12/26 04:14:06;;;;;;;22.55;12.93;;;;;;;2.14;82.11;101315.25;4988627;28;20057;-83
2020/12/26 04:16:33;;;;;;;25.63;12.52;;;;;;;2.17;81.74;101328.31;4980351;28;20387;-81
2020/12/26 04:18:59;;;;;;;23.80;13.15;;;;;;;2.13;82.10;101318.72;4981424;28;20058;-81
2020/12/26 04:21:26;;;;;;;21.73;11.98;;;;;;;2.13;81.51;101327.44;4996088;28;20556;-81
2020/12/26 04:23:53;;;;;;;22.02;12.02;;;;;;;2.16;82.28;101337.03;4987473;28;20129;-82
2020/12/26 04:26:21;;;;;;;25.48;12.13;;;;;;;2.20;81.75;101331.81;4994283;28;20061;-81
2020/12/26 04:28:48;;;;;;;19.45;12.00;;;;;;;2.22;81.43;101330.06;4997086;28;20043;-82
2020/12/26 04:31:16;;;;;;;22.60;12.10;;;;;;;2.20;81.41;101320.50;4999525;28;20048;-82
2020/12/26 04:33:42;;;;;;;19.30;11.93;;;;;;;2.16;80.92;101314.38;4989971;28;20055;-81
2020/12/26 04:36:09;;;;;;;24.77;12.88;;;;;;;2.08;81.29;101310.88;4992444;28;20146;-83
2020/12/26 04:38:37;;;;;;;25.52;12.77;;;;;;;2.06;81.27;101307.38;4998533;28;20050;-83
2020/12/26 04:41:04;;;;;;;20.20;12.13;;;;;;;2.07;81.66;101311.72;4998219;28;20473;-83
2020/12/26 04:43:33;;;;;;;22.08;12.43;;;;;;;2.12;82.29;101307.41;4998368;28;20050;-83
2020/12/26 04:46:10;;;;;;;18.80;11.63;;;;;;;2.14;81.29;101310.00;4997277;28;20066;-80
2020/12/26 04:48:49;;;;;;;24.90;12.18;;;;;;;2.14;81.78;101321.34;5008680;28;20073;-80
2020/12/26 04:51:17;;;;;;;25.38;12.63;;;;;;;2.17;81.28;101317.88;4994414;28;20050;-80
2020/12/26 04:53:45;;;;;;;30.65;15.50;;;;;;;2.21;81.43;101327.44;5010616;28;20092;-81
2020/12/26 04:56:12;;;;;;;24.40;13.40;;;;;;;2.17;81.65;101321.34;5013667;28;20082;-81
2020/12/26 04:58:42;;;;;;;22.42;13.00;;;;;;;2.11;82.01;101316.09;4989889;28;20054;-81
2020/12/26 05:01:09;;;;;;;23.60;12.88;;;;;;;2.13;81.93;101329.16;4993114;28;20061;-82
2020/12/26 05:03:40;;;;;;;26.73;13.68;;;;;;;2.09;81.78;101325.66;4997982;28;20474;-84
2020/12/26 05:06:07;;;;;;;23.55;13.75;;;;;;;2.04;82.31;101335.25;4990072;28;20043;-81
2020/12/26 05:08:33;;;;;;;24.90;13.43;;;;;;;2.01;82.46;101337.84;5000724;28;20125;-79
2020/12/26 05:11:00;;;;;;;23.15;13.30;;;;;;;1.97;82.67;101330.88;5017568;28;20120;-81
2020/12/26 05:13:30;;;;;;;24.38;13.30;;;;;;;1.98;82.76;101332.63;5018114;28;20057;-80
2020/12/26 05:15:56;;;;;;;21.52;13.23;;;;;;;1.93;83.03;101331.72;5013367;28;20106;-80
2020/12/26 05:18:22;;;;;;;24.17;12.98;;;;;;;1.96;82.91;101326.50;5011740;28;20081;-80
2020/12/26 05:20:49;;;;;;;22.80;12.38;;;;;;;2.05;82.63;101316.06;5007378;28;20056;-82
2020/12/26 05:23:18;;;;;;;22.92;12.18;;;;;;;2.04;82.41;101322.19;5000335;28;20089;-80
2020/12/26 05:25:49;;;;;;;23.40;12.30;;;;;;;2.11;82.89;101322.19;4988941;28;20082;-80
2020/12/26 05:28:16;;;;;;;;;;;;;;;2.14;82.04;101323.94;4987521;28;20065;-80
2020/12/26 05:30:44;;;;;;;26.27;13.35;;;;;;;2.07;82.24;101324.78;4998197;28;20386;-81
2020/12/26 05:33:13;;;;;;;26.52;13.15;;;;;;;2.00;83.13;101328.28;4999457;28;20050;-82
2020/12/26 05:35:44;;;;;;;24.27;13.25;;;;;;;1.94;82.68;101323.03;4998009;28;20055;-81
2020/12/26 05:38:24;;;;;;;27.27;12.60;;;;;;;1.92;82.91;101320.41;4991728;28;20055;-84
2020/12/26 05:41:01;;;;;;;21.98;12.50;;;;;;;1.96;83.69;101323.91;4997787;28;20065;-83
2020/12/26 05:43:28;;;;;;;25.80;13.10;;;;;;;1.98;83.04;101323.03;4993020;28;20077;-82
2020/12/26 05:45:56;;;;;;;24.80;13.52;;;;;;;1.95;83.50;101315.19;4998999;28;20649;-82
2020/12/26 05:48:25;;;;;;;23.48;12.95;;;;;;;1.93;82.96;101318.66;4990117;28;20051;-82
2020/12/26 05:50:57;;;;;;;23.55;12.98;;;;;;;1.90;83.93;101297.75;4986836;28;20133;-83
2020/12/26 05:53:25;;;;;;;24.05;12.48;;;;;;;1.92;83.05;101311.69;4993819;28;20050;-83
2020/12/26 05:55:52;;;;;;;20.30;12.30;;;;;;;1.93;83.43;101319.53;4993897;28;20134;-86
2020/12/26 05:58:23;;;;;;;24.50;12.73;;;;;;;1.90;83.34;101310.81;5007184;28;20154;-80
2020/12/26 06:00:52;;;;;;;26.55;13.32;;;;;;;1.93;83.93;101319.53;5010394;28;20076;-79
2020/12/26 06:03:30;;;;;;;22.38;13.15;;;;;;;1.91;84.02;101313.44;5006545;28;20046;-79
2020/12/26 06:05:59;;;;;;;23.10;12.63;;;;;;;1.85;83.56;101316.03;5002859;28;20042;-81
2020/12/26 06:08:26;;;;;;;21.40;12.80;;;;;;;1.83;83.62;101316.91;4997172;28;20056;-82
2020/12/26 06:10:55;;;;;;;26.95;13.55;;;;;;;1.84;84.00;101321.25;4992384;28;20065;-83
2020/12/26 06:13:27;;;;;;;25.77;13.07;;;;;;;1.85;84.53;101317.78;4988614;28;20057;-83
2020/12/26 06:16:13;;;;;;;22.45;13.32;;;;;;;1.83;84.77;101312.56;4990693;28;20074;-81
2020/12/26 06:18:49;;;;;;;21.45;12.85;;;;;;;1.85;84.45;101296.88;4989356;28;20050;-83
2020/12/26 06:21:17;;;;;;;22.73;12.93;;;;;;;1.88;84.37;101296.91;4985004;28;20047;-81
2020/12/26 06:23:44;;;;;;;24.42;12.98;;;;;;;1.87;84.27;101301.25;4991073;28;20078;-81
2020/12/26 06:26:11;;;;;;;22.33;12.23;;;;;;;1.89;84.51;101303.88;4993683;28;20084;-83
2020/12/26 06:28:40;;;;;;;27.40;12.95;;;;;;;1.88;84.06;101303.00;4993437;28;20050;-83
2020/12/26 06:31:09;;;;;;;22.67;12.88;;;;;;;1.85;84.41;101292.53;4988860;28;20134;-82
2020/12/26 06:33:44;;;;;;;28.60;13.52;;;;;;;1.84;84.17;101289.91;5004863;28;20047;-81
2020/12/26 06:36:12;;;;;;;24.85;12.95;;;;;;;1.87;84.43;101300.38;5002508;28;20085;-80
2020/12/26 06:38:40;;;;;;;23.00;11.82;;;;;;;1.91;84.53;101300.38;4992413;28;20046;-82
2020/12/26 06:41:13;;;;;;;25.25;12.38;;;;;;;1.92;84.48;101293.41;4978709;28;20141;-83
2020/12/26 06:43:40;;;;;;;20.98;12.20;;;;;;;1.91;83.91;101300.38;5001258;28;20050;-82
2020/12/26 06:46:07;;;;;;;22.05;12.07;;;;;;;1.87;83.84;101300.38;5004423;28;20074;-83
2020/12/26 06:48:34;;;;;;;26.13;13.38;;;;;;;1.81;84.48;101292.50;4988106;28;20134;-81
2020/12/26 06:51:27;;;;;;;24.70;12.77;;;;;;;1.83;84.19;101282.94;4997397;28;20459;-82
2020/12/26 06:53:58;;;;;;;21.73;12.32;;;;;;;1.92;84.10;101294.28;4994690;28;20042;-80
2020/12/26 06:56:34;;;;;;;21.27;12.35;;;;;;;1.99;84.15;101287.34;4993756;28;20104;-82
2020/12/26 06:59:05;;;;;;;24.40;12.63;;;;;;;2.00;84.08;101282.13;4984224;28;20055;-80
2020/12/26 07:01:33;;;;;;;21.05;12.38;;;;;;;2.05;83.96;101287.34;4987859;28;20077;-80
2020/12/26 07:04:12;;;;;;;21.13;12.43;;;;;;;2.06;83.31;101289.09;4998389;28;20053;-81
2020/12/26 07:06:47;;;;;;;20.93;13.03;;;;;;;1.95;83.72;101294.28;4987819;28;20120;-81
2020/12/26 07:09:18;;;;;;;21.02;12.25;;;;;;;2.01;83.37;101306.50;4994595;28;20477;-79
2020/12/26 07:11:49;;;;;;;25.48;13.02;;;;;;;1.97;84.08;101305.63;4993698;28;20125;-81
2020/12/26 07:14:39;;;;;;;24.85;13.07;;;;;;;1.94;84.19;101312.56;4978993;28;20413;-81
2020/12/26 07:17:06;;;;;;;24.98;12.88;;;;;;;1.95;84.32;101309.09;4999685;28;20058;-83
2020/12/26 07:19:43;;;;;;;25.13;12.95;;;;;;;1.88;84.41;101315.19;4995548;28;20132;-81
2020/12/26 07:22:13;;;;;;;24.95;13.90;;;;;;;1.82;84.37;101310.81;4999557;28;20056;-83
2020/12/26 07:24:42;;;;;;;22.15;13.27;;;;;;;1.75;84.92;101311.63;4993867;28;20081;-80
2020/12/26 07:27:20;;;;;;;23.65;13.45;;;;;;;1.75;85.21;101312.50;4998246;28;20133;-80
2020/12/26 07:30:12;;;;;;;21.67;13.00;;;;;;;1.74;85.09;101312.50;4990867;28;20054;-83
2020/12/26 07:32:46;;;;;;;26.10;13.20;;;;;;;1.73;84.73;101327.28;4994505;28;20124;-81
2020/12/26 07:35:22;;;;;;;27.35;14.18;;;;;;;1.70;85.50;101329.03;4986396;28;20097;-84
2020/12/26 07:37:51;;;;;;;25.70;13.73;;;;;;;1.67;85.43;101329.03;4986760;28;22841;-83
2020/12/26 07:40:19;;;;;;;22.75;13.05;;;;;;;1.64;86.20;101329.00;4994032;28;20038;-79
2020/12/26 07:42:46;;;;;;;25.10;13.98;;;;;;;1.63;86.20;101330.75;4999433;28;20058;-81
2020/12/26 07:45:15;;;;;;;24.20;13.20;;;;;;;1.60;86.77;101328.13;4995557;28;20480;-81
2020/12/26 07:47:44;;;;;;;24.88;13.43;;;;;;;1.60;86.37;101327.25;4995584;28;20137;-82
2020/12/26 07:50:12;;;;;;;22.20;13.13;;;;;;;1.59;86.59;101326.38;4994835;28;20133;-79
2020/12/26 07:52:38;;;;;;;23.90;13.20;;;;;;;1.62;86.96;101321.16;4996115;28;20097;-80
2020/12/26 07:55:05;;;;;;;24.08;13.15;;;;;;;1.72;86.57;101338.63;5011524;28;20089;-82
2020/12/26 07:57:32;;;;;;;21.88;12.52;;;;;;;1.70;85.93;101329.03;5014227;28;20058;-80
2020/12/26 08:00:01;;;;;;;26.70;13.10;;;;;;;1.71;85.88;101325.56;5014799;28;20193;-85
2020/12/26 08:02:28;;;;;;;28.35;13.32;;;;;;;1.68;86.31;101322.94;5005827;28;20136;-81
2020/12/26 08:04:54;;;;;;;23.38;13.13;;;;;;;1.63;86.11;101330.75;4992275;28;20064;-80
2020/12/26 08:07:21;;;;;;;23.75;12.88;;;;;;;1.62;86.65;101323.78;4996125;28;20553;-81
2020/12/26 08:09:58;;;;;;;24.40;12.93;;;;;;;1.64;86.92;101323.78;5006962;28;20046;-83
2020/12/26 08:12:24;;;;;;;25.90;13.45;;;;;;;1.66;86.65;101316.84;5003342;28;20110;-83
2020/12/26 08:14:58;;;;;;;26.13;12.55;;;;;;;1.65;86.67;101323.78;5002023;28;20072;-81
2020/12/26 08:17:27;;;;;;;28.00;13.13;;;;;;;1.64;87.14;101322.03;5000965;28;20137;-82
2020/12/26 08:20:01;;;;;;;21.52;12.43;;;;;;;1.71;87.55;101331.66;4995514;28;20051;-85
2020/12/26 08:22:28;;;;;;;25.52;12.52;;;;;;;1.82;87.45;101328.22;4997817;28;20058;-84
2020/12/26 08:25:08;;;;;;;21.20;12.65;;;;;;;1.96;86.39;101330.00;5001856;28;20125;-83
2020/12/26 08:27:40;;;;;;;26.48;12.13;;;;;;;1.98;86.24;101328.25;4992043;28;20050;-82
2020/12/26 08:30:10;;;;;;;;;;;;;;;1.98;85.55;101333.50;5000134;28;20137;-84
2020/12/26 08:33:15;;;;;;;21.75;12.02;;;;;;;1.97;86.48;101343.94;4997225;28;19975;-80
2020/12/26 08:35:53;;;;;;;23.60;13.18;;;;;;;1.90;85.45;101334.31;4987695;28;20058;-83
2020/12/26 08:38:27;;;;;;;26.83;13.23;;;;;;;1.84;86.05;101347.38;4997659;28;20088;-82
2020/12/26 08:40:57;;;;;;;26.48;13.77;;;;;;;1.74;85.98;101336.88;4990173;28;20050;-83
2020/12/26 08:43:24;;;;;;;25.87;13.77;;;;;;;1.74;86.37;101347.31;4995498;28;20136;-81
2020/12/26 08:45:51;;;;;;;26.17;13.88;;;;;;;1.74;87.34;101349.94;4992249;28;20097;-82
2020/12/26 08:48:23;;;;;;;22.13;12.50;;;;;;;1.86;86.86;101356.09;4991383;28;20054;-82
2020/12/26 08:50:59;;;;;;;26.35;13.07;;;;;;;1.89;87.07;101361.34;4990853;28;20061;-81
2020/12/26 08:53:28;;;;;;;25.63;12.35;;;;;;;1.91;86.76;101362.19;4993447;28;20460;-82
2020/12/26 08:55:55;;;;;;;23.60;13.35;;;;;;;1.98;87.05;101358.75;4991374;28;20042;-82
2020/12/26 08:58:23;;;;;;;22.73;12.75;;;;;;;2.13;86.56;101360.53;4989111;28;20063;-82
2020/12/26 09:00:50;;;;;;;25.90;12.80;;;;;;;2.28;85.92;101358.81;4987261;28;20076;-81
2020/12/26 09:03:21;;;;;;;22.48;12.18;;;;;;;2.41;84.79;101357.97;4992221;28;20050;-82
2020/12/26 09:05:47;;;;;;;;;;;;;;;2.54;84.09;101369.31;4993420;28;20073;-83
2020/12/26 09:08:14;;;;;;;22.13;11.40;;;;;;;2.63;83.85;101373.69;4991552;28;19928;-82
2020/12/26 09:10:41;;;;;;;22.30;11.20;;;;;;;2.65;84.04;101378.06;4988708;28;20042;-83
2020/12/26 09:13:13;;;;;;;18.55;11.68;;;;;;;2.63;83.30;101378.94;4987025;28;20446;-81
2020/12/26 09:15:53;;;;;;;23.10;11.95;;;;;;;2.60;83.08;101377.19;4993559;28;20147;-84
2020/12/26 09:18:28;;;;;;;18.90;11.13;;;;;;;2.58;83.02;101367.56;5003524;28;20054;-81
2020/12/26 09:20:58;;;;;;;21.60;11.32;;;;;;;2.57;83.73;101374.56;5003156;28;20054;-81
2020/12/26 09:23:31;;;;;;;22.65;10.95;;;;;;;2.66;83.92;101377.19;4999659;28;20066;-81
2020/12/26 09:26:19;;;;;;;20.13;10.90;;;;;;;2.70;83.54;101364.97;5004901;28;20046;-85
2020/12/26 09:28:48;;;;;;;21.23;11.48;;;;;;;2.66;82.85;101365.88;4998029;28;20357;-81
2020/12/26 09:31:16;;;;;;;19.38;10.15;;;;;;;2.60;83.15;101364.09;4991278;28;20417;-82
2020/12/26 09:33:43;;;;;;;17.77;10.88;;;;;;;2.55;83.04;101386.75;4984593;28;20493;-80
2020/12/26 09:36:16;;;;;;;20.67;11.15;;;;;;;2.59;83.61;101382.41;4990245;28;20073;-82
2020/12/26 09:38:43;;;;;;;18.25;11.57;;;;;;;2.57;83.71;101378.91;4983098;28;20042;-82
2020/12/26 09:41:17;;;;;;;19.65;11.52;;;;;;;2.66;83.39;101382.41;4987456;28;20057;-82
2020/12/26 09:43:46;;;;;;;24.73;12.02;;;;;;;2.64;83.81;101376.31;4990286;28;20065;-82
2020/12/26 09:46:13;;;;;;;20.85;10.68;;;;;;;2.65;83.61;101371.97;4987434;28;20161;-80
2020/12/26 09:48:43;;;;;;;20.50;11.88;;;;;;;2.64;83.85;101367.59;4991972;28;20077;-82
2020/12/26 09:51:20;;;;;;;20.70;11.25;;;;;;;2.69;83.75;101371.94;5013170;28;20047;-84
2020/12/26 09:53:49;;;;;;;20.33;11.23;;;;;;;2.73;83.24;101360.63;5007488;28;20066;-82
2020/12/26 09:56:17;;;;;;;19.00;11.10;;;;;;;2.79;83.29;101359.75;5004066;28;20066;-78
2020/12/26 09:58:45;;;;;;;24.80;11.57;;;;;;;2.86;83.64;101355.38;5010300;28;20090;-78
2020/12/26 10:01:16;;;;;;;21.63;12.00;;;;;;;2.89;83.16;101361.50;5003103;28;20072;-85
2020/12/26 10:03:44;;;;;;;22.73;11.93;;;;;;;2.96;82.73;101344.06;4999682;28;20100;-82
2020/12/26 10:06:12;;;;;;;23.40;11.80;;;;;;;3.01;82.96;101340.53;4990679;28;20073;-82
2020/12/26 10:08:43;;;;;;;23.60;12.45;;;;;;;3.18;82.65;101337.91;4988750;28;20054;-84
2020/12/26 10:11:14;;;;;;;22.40;12.00;;;;;;;3.27;81.83;101350.13;4991576;28;20134;-85
2020/12/26 10:13:42;;;;;;;21.27;11.95;;;;;;;3.26;80.97;101345.75;4988974;28;20066;-82
2020/12/26 10:16:09;;;;;;;19.83;11.73;;;;;;;3.26;80.90;101332.66;4987202;28;20114;-84
2020/12/26 10:18:36;;;;;;;26.75;12.80;;;;;;;3.23;81.51;101335.28;4986369;28;20058;-81
2020/12/26 10:21:03;;;;;;;21.27;12.48;;;;;;;3.27;81.31;101339.66;4984564;28;20042;-82
2020/12/26 10:23:30;;;;;;;22.05;12.40;;;;;;;3.34;81.28;101336.13;4985202;28;20113;-80
2020/12/26 10:26:06;;;;;;;20.13;12.10;;;;;;;3.25;81.04;101333.53;4980395;28;20584;-82
2020/12/26 10:28:34;;;;;;;20.35;12.40;;;;;;;3.21;80.80;101327.44;4984809;28;20125;-80
2020/12/26 10:31:01;;;;;;;22.95;12.07;;;;;;;3.23;81.01;101332.66;4982272;28;20046;-83
2020/12/26 10:33:29;;;;;;;23.02;12.70;;;;;;;3.22;80.57;101325.69;4983640;28;20081;-81
2020/12/26 10:35:56;;;;;;;22.00;12.32;;;;;;;3.21;81.81;101329.19;4982912;28;20062;-81
2020/12/26 10:38:25;;;;;;;20.05;12.35;;;;;;;3.17;81.57;101325.69;4986410;28;20050;-81
2020/12/26 10:40:51;;;;;;;25.10;11.60;;;;;;;3.20;80.97;101330.06;4988293;28;20532;-84
2020/12/26 10:43:18;;;;;;;21.42;11.68;;;;;;;3.33;80.75;101326.53;4990075;28;20074;-81
2020/12/26 10:45:44;;;;;;;19.17;11.73;;;;;;;3.36;80.74;101324.78;4980161;28;20486;-79
2020/12/26 10:48:11;;;;;;;21.90;12.05;;;;;;;3.31;80.21;101323.03;4997337;28;20126;-79
2020/12/26 10:50:38;;;;;;;23.23;13.05;;;;;;;3.28;81.13;101321.31;4997358;28;20050;-80
2020/12/26 10:53:04;;;;;;;21.52;12.13;;;;;;;3.30;81.29;101318.72;4992427;28;20124;-80
2020/12/26 10:55:30;;;;;;;26.67;13.75;;;;;;;3.35;83.18;101319.53;4993038;28;20073;-81
2020/12/26 10:57:59;;;;;;;24.08;12.38;;;;;;;3.53;84.00;101311.63;4993552;28;20085;-80
2020/12/26 11:00:27;;;;;;;21.65;12.63;;;;;;;3.57;81.96;101320.38;4991953;28;20060;-83
2020/12/26 11:02:54;;;;;;;20.90;11.90;;;;;;;3.63;80.63;101315.94;4991237;28;20050;-80
2020/12/26 11:05:21;;;;;;;21.55;11.65;;;;;;;3.72;79.86;101322.91;5007912;28;20089;-79
2020/12/26 11:07:47;;;;;;;21.20;11.88;;;;;;;3.68;79.60;101314.19;5004864;28;20042;-80
2020/12/26 11:10:14;;;;;;;20.02;11.57;;;;;;;3.59;79.42;101311.63;4995921;28;20085;-82
2020/12/26 11:12:40;;;;;;;21.67;11.93;;;;;;;3.53;79.37;101309.03;4994609;28;20101;-82
2020/12/26 11:15:06;;;;;;;19.80;11.65;;;;;;;3.50;79.84;101301.16;4997748;28;20454;-79
2020/12/26 11:17:33;;;;;;;16.05;11.88;;;;;;;3.58;80.04;101302.03;5002975;28;20066;-78
2020/12/26 11:19:59;;;;;;;16.60;10.70;;;;;;;3.59;79.55;101303.78;5002970;28;20070;-82
2020/12/26 11:22:26;;;;;;;20.30;11.60;;;;;;;3.59;79.61;101298.53;5003417;28;20054;-78
2020/12/26 11:24:52;;;;;;;17.23;11.48;;;;;;;3.62;80.39;101287.19;4994876;28;20160;-80